Flight Track Log - Related Links

Times and Time Zones

All times are in EDT time to prevent confusion due to time zone crossing. See the UAL4380 flight status page for this flight to view local times or setup timezone preferences in your user account.

Time Position Orientation Groundspeed Altitude Reporting Facility
EDT Latitude Longitude Course Direction KTS MPH feet Rate Location/Type
Thu 09:06:17 AM 29.9597 -95.3439 334° Northwest 165 190 700  Level Houston Center
Thu 09:07:18 AM 29.9250 -95.3794 222° Southwest 239 275 2,400 1,680 Climbing Houston Center
Thu 09:08:22 AM 29.9792 -95.4036 339° North 234 269 4,200 1,952 Climbing Houston Center
Thu 09:09:00 AM 30.2239 -95.4712 332° Northwest  Level FlightAware Approximate
Thu 09:09:24 AM 30.0525 -95.4108 355° North 251 289 6,500  Level Houston Center
Thu 09:10:00 AM 30.3027 -95.5204 332° Northwest  Level FlightAware Approximate
Thu 09:10:26 AM 30.1275 -95.4181 355° North 265 305 8,900  Level Houston Center
Thu 09:11:00 AM 30.3823 -95.5679 334° Northwest  Level FlightAware Approximate
Thu 09:11:28 AM 30.2161 -95.4547 340° North 291 335 10,600  Level Houston Center
Thu 09:12:30 AM 30.2953 -95.5031 332° Northwest 325 374 11,600 1,065 Climbing Houston Center
Thu 09:13:32 AM 30.3825 -95.5569 332° Northwest 351 404 12,800 1,210 Climbing Houston Center
Thu 09:14:34 AM 30.4717 -95.6136 331° Northwest 362 417 14,100 1,210 Climbing Houston Center
Thu 09:15:36 AM 30.5639 -95.6686 333° Northwest 373 429 15,300 968 Climbing Houston Center
Thu 09:16:38 AM 30.6589 -95.7189 336° Northwest 374 430 16,100 339 Climbing Houston Center
Thu 09:17:40 AM 30.7633 -95.7736 336° Northwest 391 450 16,000 -48 Descending Houston Center
Thu 09:18:42 AM 30.8811 -95.8364 335° Northwest 388 447 16,000  Level Houston Center
Thu 09:19:44 AM 30.9775 -95.8889 335° Northwest 383 441 16,000  Level Houston Center
Thu 09:20:46 AM 31.0731 -95.9400 335° Northwest 377 434 16,000 57 Level Houston Center
Thu 09:21:30 AM 31.1528 -95.9739 340° North 409 471 16,100 58 Climbing Fort Worth Center
Thu 09:22:30 AM 31.2597 -95.9967 350° North 401 461 16,100  Level Fort Worth Center
Thu 09:23:30 AM 31.3686 -96.0264 347° North 396 456 16,100 -50 Level Fort Worth Center
Thu 09:24:30 AM 31.4628 -96.0469 349° North 391 450 16,000  Descending Fort Worth Center
Thu 09:25:30 AM 31.5717 -96.0747 348° North 396 456 16,100 50 Climbing Fort Worth Center
Thu 09:26:30 AM 31.6761 -96.1000 348° North 394 453 16,100  Level Fort Worth Center
Thu 09:27:30 AM 31.7831 -96.1231 350° North 389 448 16,100 -50 Level Fort Worth Center
Thu 09:28:30 AM 31.8897 -96.1483 349° North 393 452 16,000 -50 Descending Fort Worth Center
Thu 09:29:30 AM 31.9944 -96.1739 348° North 393 452 16,000  Level Fort Worth Center
Thu 09:30:30 AM 32.1011 -96.1969 350° North 388 447 16,000 -1,350 Level Fort Worth Center
Thu 09:31:30 AM 32.2014 -96.2275 346° North 388 447 13,300 -2,500 Descending Fort Worth Center
Thu 09:32:30 AM 32.2897 -96.2806 333° Northwest 358 412 11,000 -1,650 Descending Fort Worth Center
Thu 09:33:30 AM 32.3717 -96.3286 334° Northwest 318 366 10,000 -1,000 Descending Fort Worth Center
Thu 09:34:30 AM 32.4325 -96.3647 333° Northwest 280 322 9,000 -500 Descending Fort Worth Center
Thu 09:35:30 AM 32.5078 -96.4033 337° Northwest 270 311 9,000 -650 Level Fort Worth Center
Thu 09:36:30 AM 32.5728 -96.4347 338° Northwest 270 311 7,700 -1,550 Descending Fort Worth Center
Thu 09:37:30 AM 32.6442 -96.4758 334° Northwest 270 311 5,900 -1,300 Descending Fort Worth Center
Thu 09:38:30 AM 32.7028 -96.5122 332° Northwest 264 304 5,100 -450 Descending Fort Worth Center
Thu 09:39:30 AM 32.7761 -96.5561 333° Northwest 264 304 5,000 -50 Descending Fort Worth Center
Thu 09:40:30 AM 32.8308 -96.5925 331° Northwest 259 298 5,000 -50 Level Fort Worth Center
Thu 09:41:30 AM 32.8875 -96.6639 313° West 259 298 4,900 -800 Descending Fort Worth Center
Thu 09:42:30 AM 32.9317 -96.7228 312° West 265 305 3,400 -950 Descending Fort Worth Center
Thu 09:43:30 AM 32.9500 -96.8000 286° West 238 274 3,000 -198 Descending Dallas / Fort Worth TRACON
Thu 09:44:31 AM 32.9500 -96.8833 270° West 209 241 3,000  Level Dallas / Fort Worth TRACON

Login

Don't have an account? Register now (free) for customized features, flight alerts, and more!